createdAt,value
2022-10-28T08:37:43.420Z,32.78
2022-10-28T08:39:46.023Z,38.70
2022-10-28T08:41:58.647Z,31.42
2022-10-28T08:44:20.893Z,26.50
2022-10-28T08:46:49.744Z,36.85
2022-10-28T08:48:51.979Z,30.58
2022-10-28T08:51:00.766Z,30.67
2022-10-28T08:53:27.059Z,33.28
2022-10-28T08:55:35.124Z,24.67
2022-10-28T08:57:51.086Z,27.85
2022-10-28T08:59:54.072Z,27.37
2022-10-28T09:02:22.075Z,25.12
2022-10-28T09:04:44.114Z,24.55
2022-10-28T09:06:46.587Z,27.13
2022-10-28T09:08:50.083Z,21.75
2022-10-28T09:11:06.938Z,25.45
2022-10-28T09:13:17.848Z,26.95
2022-10-28T09:15:47.595Z,36.55
2022-10-28T09:18:43.986Z,36.97
2022-10-28T09:20:54.050Z,24.95
2022-10-28T09:22:58.726Z,25.65
2022-10-28T09:25:17.701Z,28.38
2022-10-28T09:27:49.868Z,27.20
2022-10-28T09:30:07.547Z,26.73
2022-10-28T09:32:36.754Z,23.80
2022-10-28T09:34:51.186Z,24.85
2022-10-28T09:36:58.582Z,30.55
2022-10-28T09:39:03.488Z,25.42
2022-10-28T09:41:16.257Z,25.77
2022-10-28T09:43:48.870Z,25.67
2022-10-28T09:45:53.686Z,24.42
2022-10-28T09:48:14.528Z,38.08
2022-10-28T09:50:20.935Z,24.37
2022-10-28T09:52:28.532Z,28.50
2022-10-28T09:54:35.960Z,21.37
2022-10-28T09:56:39.194Z,20.10
2022-10-28T09:58:46.746Z,25.83
2022-10-28T10:00:49.692Z,24.75
2022-10-28T10:02:57.683Z,25.83
2022-10-28T10:05:02.698Z,22.98
2022-10-28T10:07:12.281Z,25.33
2022-10-28T10:09:21.717Z,21.95
2022-10-28T10:11:44.964Z,28.00
2022-10-28T10:13:47.673Z,22.70
2022-10-28T10:15:57.083Z,23.73
2022-10-28T10:18:02.292Z,25.52
2022-10-28T10:20:13.391Z,25.58
2022-10-28T10:22:34.058Z,24.30
2022-10-28T10:24:36.336Z,24.98
2022-10-28T10:26:38.559Z,24.92
2022-10-28T10:28:46.689Z,25.33
2022-10-28T10:30:54.750Z,21.60
2022-10-28T10:32:57.964Z,26.42
2022-10-28T10:35:23.075Z,20.35
2022-10-28T10:37:25.467Z,28.15
2022-10-28T10:39:35.392Z,29.30
2022-10-28T10:41:41.809Z,33.60
2022-10-28T10:43:44.018Z,25.12
2022-10-28T10:46:00.825Z,28.70
2022-10-28T10:48:12.110Z,25.92
2022-10-28T10:52:30.516Z,25.88
2022-10-28T10:54:36.090Z,27.33
2022-10-28T10:56:38.507Z,25.90
2022-10-28T10:58:49.816Z,26.15
2022-10-28T11:00:56.217Z,24.58
2022-10-28T11:02:59.903Z,23.58
2022-10-28T11:05:06.190Z,23.55
2022-10-28T11:07:15.722Z,27.17
2022-10-28T11:09:23.327Z,27.13
2022-10-28T11:11:39.935Z,22.42
2022-10-28T11:13:45.963Z,28.08
2022-10-28T11:16:00.776Z,26.25
2022-10-28T11:18:17.049Z,23.87
2022-10-28T11:20:53.598Z,24.90
2022-10-28T11:23:01.912Z,25.98
2022-10-28T11:25:44.093Z,25.77
2022-10-28T11:28:23.423Z,20.37
2022-10-28T11:31:10.334Z,24.30
2022-10-28T11:33:35.161Z,22.27
2022-10-28T11:35:40.650Z,27.25
2022-10-28T11:38:11.061Z,21.92
2022-10-28T11:40:27.604Z,22.80
2022-10-28T11:42:38.802Z,22.87
2022-10-28T11:44:59.647Z,25.90
2022-10-28T11:50:01.802Z,25.05
2022-10-28T11:56:39.570Z,26.27
2022-10-28T11:58:53.461Z,24.83
2022-10-28T12:01:14.652Z,22.13
2022-10-28T12:03:32.406Z,24.58
2022-10-28T12:05:59.238Z,26.90
2022-10-28T12:08:09.831Z,27.87
2022-10-28T12:10:21.710Z,25.88
2022-10-28T12:12:37.264Z,25.77
2022-10-28T12:14:47.582Z,22.15
2022-10-28T12:17:21.442Z,29.98
2022-10-28T12:19:38.462Z,22.40
2022-10-28T12:21:46.173Z,27.13
2022-10-28T12:23:49.575Z,25.88
2022-10-28T12:25:57.334Z,26.73
2022-10-28T12:28:04.557Z,28.25
2022-10-28T12:30:13.244Z,28.02
2022-10-28T12:32:22.691Z,35.83
2022-10-28T12:34:34.030Z,25.05
2022-10-28T12:36:45.769Z,31.80
2022-10-28T12:39:06.650Z,29.77
2022-10-28T12:41:11.627Z,24.92
2022-10-28T12:43:24.225Z,25.65
2022-10-28T12:45:28.689Z,43.63
2022-10-28T12:47:43.384Z,27.13
2022-10-28T12:50:08.079Z,36.08
2022-10-28T12:52:22.201Z,30.05
2022-10-28T12:54:53.542Z,25.35
2022-10-28T12:57:20.046Z,28.33
2022-10-28T12:59:35.312Z,32.20
2022-10-28T13:01:38.096Z,37.40
2022-10-28T13:03:41.128Z,28.35
2022-10-28T13:06:09.180Z,25.42
2022-10-28T13:08:39.107Z,30.02
2022-10-28T13:10:52.605Z,28.55
2022-10-28T13:13:15.068Z,28.17
2022-10-28T13:15:25.834Z,29.52
2022-10-28T13:19:36.227Z,31.95
2022-10-28T13:22:02.767Z,30.23
2022-10-28T13:24:16.515Z,50.10
2022-10-28T13:26:32.751Z,32.53
2022-10-28T13:28:42.203Z,31.30
2022-10-28T13:31:05.993Z,32.67
2022-10-28T13:33:16.485Z,32.28
2022-10-28T13:35:25.392Z,30.83
2022-10-28T13:37:36.668Z,26.08
2022-10-28T13:41:47.893Z,35.13
2022-10-28T13:43:58.355Z,26.42
2022-10-28T13:46:00.576Z,22.95
2022-10-28T13:48:40.630Z,26.35
2022-10-28T13:50:43.067Z,30.00
2022-10-28T13:55:27.272Z,29.73
2022-10-28T13:57:36.765Z,25.80
2022-10-28T13:59:49.924Z,32.63
2022-10-28T14:02:07.818Z,26.87
2022-10-28T14:04:26.399Z,31.05
2022-10-28T14:06:32.955Z,27.00
2022-10-28T14:08:40.163Z,34.28
2022-10-28T14:11:03.908Z,30.58
2022-10-28T14:13:21.326Z,32.05
2022-10-28T14:15:27.002Z,41.78
2022-10-28T14:17:39.682Z,27.25
2022-10-28T14:19:49.557Z,28.33
2022-10-28T14:22:02.140Z,26.58
2022-10-28T14:24:29.464Z,28.95
2022-10-28T14:26:31.713Z,29.25
2022-10-28T14:28:33.861Z,37.30
2022-10-28T14:30:37.381Z,35.45
2022-10-28T14:32:44.846Z,30.58
2022-10-28T14:34:48.169Z,38.50
2022-10-28T14:37:12.586Z,30.30
2022-10-28T14:39:35.561Z,32.38
2022-10-28T14:42:01.077Z,38.63
2022-10-28T14:44:23.032Z,38.40
2022-10-28T14:46:50.368Z,35.63
2022-10-28T14:48:55.406Z,32.92
2022-10-28T14:51:00.260Z,33.38
2022-10-28T14:53:07.645Z,33.65
2022-10-28T14:55:22.517Z,36.08
2022-10-28T14:57:34.046Z,30.88
2022-10-28T14:59:40.044Z,32.63
2022-10-28T15:02:31.422Z,30.60
2022-10-28T15:04:34.180Z,39.83
2022-10-28T15:06:40.758Z,34.65
2022-10-28T15:08:43.145Z,41.45
2022-10-28T15:10:49.327Z,40.47
2022-10-28T15:12:54.537Z,35.20
2022-10-28T15:14:57.403Z,44.85
2022-10-28T15:17:09.241Z,33.13
2022-10-28T15:19:17.025Z,36.60
2022-10-28T15:21:21.765Z,32.72
2022-10-28T15:23:24.314Z,32.50
2022-10-28T15:25:27.574Z,34.28
2022-10-28T15:27:32.219Z,36.80
2022-10-28T15:29:35.043Z,31.33
2022-10-28T15:32:26.571Z,30.60
2022-10-28T15:34:29.538Z,34.15
2022-10-28T15:36:32.104Z,31.77
2022-10-28T15:38:39.336Z,29.17
2022-10-28T15:40:41.588Z,29.95
2022-10-28T15:43:02.509Z,28.60
2022-10-28T15:45:05.908Z,33.95
2022-10-28T15:47:33.401Z,24.70
2022-10-28T15:49:40.653Z,29.98
2022-10-28T15:51:42.865Z,30.40
2022-10-28T15:53:46.714Z,33.15
2022-10-28T15:56:20.713Z,34.33
2022-10-28T15:58:33.269Z,35.35
2022-10-28T16:00:50.212Z,34.58
2022-10-28T16:02:57.146Z,31.25
2022-10-28T16:04:59.624Z,32.15
2022-10-28T16:07:08.309Z,29.42
2022-10-28T16:09:18.948Z,44.95
2022-10-28T16:11:21.206Z,35.72
2022-10-28T16:13:35.098Z,37.05
2022-10-28T16:15:48.310Z,28.05
2022-10-28T16:17:50.495Z,33.40
2022-10-28T16:19:52.683Z,32.90
2022-10-28T16:21:56.021Z,34.00
2022-10-28T16:23:59.163Z,32.33
2022-10-28T16:26:01.355Z,32.03
2022-10-28T16:28:05.731Z,33.60
2022-10-28T16:30:08.639Z,33.95
2022-10-28T16:32:12.814Z,40.50
2022-10-28T16:34:15.356Z,32.85
2022-10-28T16:36:17.605Z,38.65
2022-10-28T16:38:20.049Z,43.47
2022-10-28T16:40:50.974Z,48.10
2022-10-28T16:42:46.588Z,33.08
2022-10-28T16:44:49.390Z,36.17
2022-10-28T16:46:51.996Z,34.42
2022-10-28T16:48:54.550Z,39.75
2022-10-28T16:51:00.521Z,37.75
2022-10-28T16:53:03.003Z,33.10
2022-10-28T16:55:13.315Z,31.70
2022-10-28T16:57:16.567Z,35.80
2022-10-28T16:59:19.395Z,33.40
2022-10-28T17:01:22.839Z,39.10
2022-10-28T17:03:25.248Z,34.95
2022-10-28T17:05:28.435Z,32.70
2022-10-28T17:07:31.344Z,34.05
2022-10-28T17:09:33.595Z,37.10
2022-10-28T17:11:36.067Z,56.42
2022-10-28T17:13:38.311Z,46.53
2022-10-28T17:15:41.955Z,43.25
2022-10-28T17:17:45.010Z,33.47
2022-10-28T17:19:47.328Z,35.60
2022-10-28T17:21:49.538Z,34.05
2022-10-28T17:23:52.043Z,31.50
2022-10-28T17:25:59.467Z,38.72
2022-10-28T17:28:04.747Z,32.75
2022-10-28T17:30:08.268Z,37.15
2022-10-28T17:32:10.924Z,32.53
2022-10-28T17:34:13.731Z,32.88
2022-10-28T17:36:16.605Z,38.33
2022-10-28T17:38:19.208Z,30.58
2022-10-28T17:40:22.222Z,38.55
2022-10-28T17:42:24.884Z,35.25
2022-10-28T17:44:27.219Z,32.55
2022-10-28T17:46:29.870Z,37.53
2022-10-28T17:48:32.760Z,40.15
2022-10-28T17:50:34.994Z,37.00
2022-10-28T17:52:38.601Z,38.85
2022-10-28T17:54:41.405Z,41.17
2022-10-28T17:56:43.732Z,42.28
2022-10-28T17:58:46.140Z,44.80
2022-10-28T18:00:48.609Z,38.47
2022-10-28T18:02:55.949Z,36.22
2022-10-28T18:04:58.324Z,38.45
2022-10-28T18:07:00.596Z,33.45
2022-10-28T18:09:03.909Z,35.28
2022-10-28T18:11:07.786Z,41.83
2022-10-28T18:13:10.270Z,39.28
2022-10-28T18:15:13.137Z,36.15
2022-10-28T18:17:17.315Z,36.83
2022-10-28T18:19:20.102Z,35.83
2022-10-28T18:21:24.417Z,33.05
2022-10-28T18:23:27.233Z,31.90
2022-10-28T18:25:30.016Z,41.22
2022-10-28T18:27:33.131Z,32.80
2022-10-28T18:29:36.309Z,45.03
2022-10-28T18:31:40.982Z,35.55
2022-10-28T18:33:44.930Z,36.67
2022-10-28T18:35:48.073Z,33.55
2022-10-28T18:37:50.735Z,36.50
2022-10-28T18:39:53.459Z,38.08
2022-10-28T18:41:56.081Z,38.08
2022-10-28T18:44:00.595Z,38.92
2022-10-28T18:46:03.375Z,35.90
2022-10-28T18:48:06.827Z,34.03
2022-10-28T18:50:09.393Z,34.65
2022-10-28T18:52:12.135Z,35.60
2022-10-28T18:54:15.109Z,31.10
2022-10-28T18:56:23.648Z,32.22
2022-10-28T18:58:27.362Z,32.83
2022-10-28T19:00:29.919Z,37.30
2022-10-28T19:02:32.344Z,31.12
2022-10-28T19:04:35.011Z,36.03
2022-10-28T19:06:40.276Z,36.53
2022-10-28T19:08:44.177Z,36.22
2022-10-28T19:10:48.617Z,39.53
2022-10-28T19:12:53.169Z,38.40
2022-10-28T19:14:55.730Z,37.65
2022-10-28T19:16:58.712Z,41.25
2022-10-28T19:19:05.589Z,43.78
2022-10-28T19:21:11.990Z,42.88
2022-10-28T19:23:14.866Z,34.80
2022-10-28T19:25:17.297Z,40.72
2022-10-28T19:27:19.632Z,36.00
2022-10-28T19:29:22.107Z,40.70
2022-10-28T19:31:26.406Z,38.28
2022-10-28T19:33:31.184Z,43.63
2022-10-28T19:35:34.491Z,38.35
2022-10-28T19:37:36.818Z,37.13
2022-10-28T19:39:39.132Z,43.97
2022-10-28T19:41:41.778Z,42.75
2022-10-28T19:43:45.005Z,39.22
2022-10-28T19:45:47.297Z,35.25
2022-10-28T19:47:50.668Z,39.10
2022-10-28T19:49:54.388Z,40.72
2022-10-28T19:51:56.718Z,40.75
2022-10-28T19:54:01.282Z,37.85
2022-10-28T19:56:04.354Z,38.00
2022-10-28T19:58:07.094Z,36.70
2022-10-28T20:00:10.394Z,41.28
2022-10-28T20:02:13.910Z,47.88
2022-10-28T20:04:17.509Z,39.47
2022-10-28T20:06:22.042Z,44.28
2022-10-28T20:08:24.325Z,42.05
2022-10-28T20:10:26.985Z,41.03
2022-10-28T20:12:29.448Z,49.42
2022-10-28T20:14:32.638Z,41.28
2022-10-28T20:16:36.349Z,46.83
2022-10-28T20:18:39.498Z,39.42
2022-10-28T20:20:41.769Z,42.03
2022-10-28T20:22:44.622Z,44.15
2022-10-28T20:24:46.927Z,41.75
2022-10-28T20:26:49.189Z,39.75
2022-10-28T20:28:51.750Z,43.15
2022-10-28T20:31:01.638Z,39.53
2022-10-28T20:33:04.168Z,41.70
2022-10-28T20:35:07.115Z,46.80
2022-10-28T20:37:09.364Z,45.08
2022-10-28T20:39:16.887Z,45.50
2022-10-28T20:41:19.731Z,56.05
2022-10-28T20:43:23.886Z,56.15
2022-10-28T20:45:26.067Z,53.38
2022-10-28T20:47:28.626Z,45.95
2022-10-28T20:49:30.867Z,44.30
2022-10-28T20:51:33.511Z,48.95
2022-10-28T20:53:36.634Z,48.20
2022-10-28T20:55:45.257Z,48.30
2022-10-28T20:57:47.436Z,49.13
2022-10-28T20:59:51.651Z,48.33
2022-10-28T21:01:53.924Z,52.60
2022-10-28T21:03:58.527Z,49.22
2022-10-28T21:06:04.160Z,51.03
2022-10-28T21:08:06.703Z,51.22
2022-10-28T21:10:09.774Z,43.92
2022-10-28T21:12:12.399Z,49.20
2022-10-28T21:14:14.960Z,51.28
2022-10-28T21:16:17.598Z,46.28
2022-10-28T21:18:20.071Z,48.80
2022-10-28T21:20:22.546Z,49.90
2022-10-28T21:22:24.789Z,51.60
2022-10-28T21:24:27.272Z,45.58
2022-10-28T21:26:29.462Z,48.40
2022-10-28T21:28:33.110Z,52.58
2022-10-28T21:30:35.518Z,47.80
2022-10-28T21:32:37.809Z,45.65
2022-10-28T21:34:40.152Z,42.95
2022-10-28T21:36:42.674Z,48.87
2022-10-28T21:38:45.472Z,44.45
2022-10-28T21:40:47.722Z,49.70
2022-10-28T21:42:50.453Z,47.08
2022-10-28T21:44:52.993Z,46.60
2022-10-28T21:46:55.430Z,42.30
2022-10-28T21:48:58.180Z,46.13
2022-10-28T21:51:02.446Z,46.42
2022-10-28T21:53:04.632Z,46.33
2022-10-28T21:55:20.052Z,45.45
2022-10-28T21:57:30.207Z,43.72
2022-10-28T21:59:33.311Z,47.70
2022-10-28T22:01:37.081Z,50.22
2022-10-28T22:03:39.628Z,46.42
2022-10-28T22:05:49.956Z,48.90
2022-10-28T22:07:52.208Z,48.50
2022-10-28T22:09:54.700Z,46.33
2022-10-28T22:11:56.919Z,47.47
2022-10-28T22:14:01.659Z,51.10
2022-10-28T22:16:10.893Z,51.15
2022-10-28T22:18:13.061Z,51.78
2022-10-28T22:20:15.745Z,52.62
2022-10-28T22:22:18.274Z,54.17
2022-10-28T22:24:20.456Z,51.45
2022-10-28T22:26:28.613Z,58.38
2022-10-28T22:28:31.646Z,69.32
2022-10-28T22:30:33.829Z,56.88
2022-10-28T22:32:36.026Z,62.55
2022-10-28T22:34:38.493Z,51.08
2022-10-28T22:36:43.222Z,60.20
2022-10-28T22:38:46.235Z,56.92
2022-10-28T22:40:48.963Z,59.78
2022-10-28T22:42:51.163Z,56.92
2022-10-28T22:44:53.334Z,55.85
2022-10-28T22:46:55.925Z,60.30
2022-10-28T22:48:58.192Z,53.87
2022-10-28T22:51:00.710Z,59.42
